Mc Kellar Sipes Regional Airport Jackson US
ICAO: KMKL
IATA: MKL
Category: Medium
Scheduled Services: Yes

Elevation: 434 ft
TransAlt. 18000 ft.

Airport Communications:
ASOS:119.325
MEMPHIS CNTR:134.65
CTAF:127.15
GND:120.9
ARNG OPS:41.5
JACKSON RDO:122.2
JACKSON TWR:127.15
UNICOM:122.95

KMKL Zoom In..

If you have problems with the map follow the link
https://www.worldairports.se/pages/airport.php?
ICAO=KMKL

Runways:

(A) RW 02 length 6006 ft width 150 ft
ILS 109.10 / hdg 23

(B) RW 11 length 3538 ft width 100 ft
---- / hdg 113

(C) RW 20 length 6006 ft width 150 ft
---- / hdg 203

(D) RW 29 length 3538 ft width 100 ft
---- / hdg 293

Location; KMKL
Day. 07 / Time. 08.37 Zulu
* Altimeter: 30.32
* Temperature: 05° c. 41°f.
* Wind from: 030° Speed 06 kn.
Dewpoint: 04° c.
Visibility: 5 Statute Miles.
Clouds: Scattered 1100 ft.
Conditions: Mist.

KMKL 070837Z AUTO 03006KT 5SM BR SCT011 05/04 A3032 RMK AO2 T00500039


Wind From 030°
Speed 06 kn.

 
 
jpsmedia worldairports.se 2019   terms of use